createdAt,value
2023-05-06T00:03:32.755Z,8.75
2023-05-06T00:08:35.291Z,7.05
2023-05-06T00:13:38.043Z,7.43
2023-05-06T00:18:41.052Z,7.45
2023-05-06T00:23:42.665Z,6.60
2023-05-06T00:28:44.289Z,7.13
2023-05-06T00:33:45.899Z,6.40
2023-05-06T00:38:47.521Z,6.15
2023-05-06T00:43:49.218Z,6.20
2023-05-06T00:48:51.324Z,7.82
2023-05-06T00:53:53.139Z,7.88
2023-05-06T00:58:55.254Z,8.30
2023-05-06T01:03:58.762Z,8.00
2023-05-06T01:09:34.886Z,7.07
2023-05-06T01:14:41.667Z,8.20
2023-05-06T01:19:46.737Z,7.38
2023-05-06T01:24:48.726Z,7.10
2023-05-06T01:29:50.642Z,8.55
2023-05-06T01:35:04.182Z,8.52
2023-05-06T01:40:07.678Z,9.15
2023-05-06T01:45:10.962Z,10.57
2023-05-06T01:50:13.093Z,9.73
2023-05-06T01:55:14.713Z,9.13
2023-05-06T02:00:16.624Z,9.50
2023-05-06T02:05:18.419Z,10.07
2023-05-06T02:10:24.590Z,9.85
2023-05-06T02:15:32.860Z,10.45
2023-05-06T02:20:35.393Z,10.60
2023-05-06T02:25:37.056Z,9.52
2023-05-06T02:30:38.631Z,11.23
2023-05-06T02:35:40.963Z,10.43
2023-05-06T02:40:42.696Z,10.95
2023-05-06T02:45:44.512Z,9.60
2023-05-06T02:50:46.529Z,10.02
2023-05-06T02:55:48.173Z,9.50
2023-05-06T03:00:49.804Z,9.65
2023-05-06T03:05:51.403Z,10.02
2023-05-06T03:10:54.270Z,9.63
2023-05-06T03:15:56.475Z,9.60
2023-05-06T03:20:58.732Z,9.57
2023-05-06T03:26:01.444Z,10.60
2023-05-06T03:31:04.200Z,8.93
2023-05-06T03:36:08.800Z,10.05
2023-05-06T03:41:12.157Z,9.95
2023-05-06T03:46:14.512Z,11.45
2023-05-06T03:51:17.152Z,10.75
2023-05-06T03:56:19.073Z,11.00
2023-05-06T04:01:23.861Z,10.82
2023-05-06T04:06:26.799Z,9.70
2023-05-06T04:11:29.828Z,9.63
2023-05-06T04:16:33.111Z,9.48
2023-05-06T04:21:34.965Z,9.45
2023-05-06T04:26:40.985Z,10.00
2023-05-06T04:31:43.485Z,8.77
2023-05-06T04:36:47.870Z,8.85
2023-05-06T04:42:09.741Z,9.10
2023-05-06T04:47:18.590Z,9.23
2023-05-06T04:52:23.860Z,10.98
2023-05-06T04:57:26.031Z,13.40
2023-05-06T05:02:29.783Z,16.83
2023-05-06T05:07:31.534Z,17.95
2023-05-06T05:12:33.445Z,19.63
2023-05-06T05:17:36.595Z,19.10
2023-05-06T05:22:38.409Z,16.20
2023-05-06T05:27:42.265Z,17.77
2023-05-06T05:32:44.194Z,16.83
2023-05-06T05:37:46.961Z,15.80
2023-05-06T05:42:52.133Z,15.73
2023-05-06T05:48:01.110Z,16.20
2023-05-06T05:53:03.153Z,15.88
2023-05-06T05:58:05.800Z,14.18
2023-05-06T06:03:09.930Z,14.32
2023-05-06T06:08:13.194Z,14.55
2023-05-06T06:13:16.211Z,14.70
2023-05-06T06:18:17.972Z,14.15
2023-05-06T06:23:19.778Z,14.43
2023-05-06T06:28:21.617Z,14.98
2023-05-06T06:33:28.695Z,14.10
2023-05-06T06:38:30.845Z,13.98
2023-05-06T06:43:38.396Z,13.18
2023-05-06T06:48:51.871Z,13.73
2023-05-06T06:53:56.287Z,13.30
2023-05-06T06:59:01.000Z,13.35
2023-05-06T07:04:07.350Z,12.55
2023-05-06T07:09:09.379Z,13.65
2023-05-06T07:14:11.965Z,12.93
2023-05-06T07:19:13.843Z,13.35
2023-05-06T07:24:15.680Z,14.30
2023-05-06T07:29:17.421Z,12.95
2023-05-06T07:34:19.780Z,15.55
2023-05-06T07:39:21.447Z,15.25
2023-05-06T07:44:23.044Z,16.15
2023-05-06T07:49:25.399Z,18.52
2023-05-06T07:54:27.095Z,21.02
2023-05-06T07:59:28.697Z,19.02
2023-05-06T08:04:30.346Z,20.90
2023-05-06T08:09:32.025Z,19.83
2023-05-06T08:14:33.653Z,17.40
2023-05-06T08:19:35.290Z,18.23
2023-05-06T08:24:36.946Z,19.77
2023-05-06T08:29:39.014Z,19.48
2023-05-06T08:34:40.946Z,20.08
2023-05-06T08:39:42.896Z,20.25
2023-05-06T08:44:44.616Z,21.23
2023-05-06T08:49:46.469Z,22.10
2023-05-06T08:54:51.493Z,21.08
2023-05-06T08:59:53.285Z,21.20
2023-05-06T09:04:56.673Z,25.75
2023-05-06T09:09:58.292Z,25.27
2023-05-06T09:14:59.854Z,22.98
2023-05-06T09:20:01.844Z,23.85
2023-05-06T09:25:03.738Z,23.00
2023-05-06T09:30:14.022Z,23.35
2023-05-06T09:35:15.653Z,23.10
2023-05-06T09:40:17.368Z,21.95
2023-05-06T09:45:19.027Z,22.95
2023-05-06T09:50:21.848Z,21.70
2023-05-06T09:55:26.840Z,22.67
2023-05-06T10:00:31.191Z,22.92
2023-05-06T10:05:34.011Z,22.23
2023-05-06T10:10:37.607Z,22.92
2023-05-06T10:15:40.089Z,23.02
2023-05-06T10:20:43.650Z,20.63
2023-05-06T10:25:47.854Z,19.90
2023-05-06T10:30:52.081Z,20.52
2023-05-06T10:36:14.468Z,20.73
2023-05-06T10:41:16.911Z,20.48
2023-05-06T10:46:18.619Z,18.48
2023-05-06T10:51:20.212Z,17.67
2023-05-06T10:56:22.161Z,16.20
2023-05-06T11:01:28.282Z,15.05
2023-05-06T11:06:43.181Z,14.32
2023-05-06T11:11:54.229Z,13.77
2023-05-06T11:16:58.237Z,13.45
2023-05-06T11:22:02.191Z,13.80
2023-05-06T11:27:03.905Z,13.82
2023-05-06T11:32:17.759Z,13.13
2023-05-06T11:37:26.155Z,12.48
2023-05-06T11:42:29.089Z,12.82
2023-05-06T11:47:30.927Z,12.27
2023-05-06T11:52:32.591Z,11.48
2023-05-06T11:57:34.437Z,10.82
2023-05-06T12:02:36.330Z,9.25
2023-05-06T12:07:38.533Z,10.23
2023-05-06T12:12:40.473Z,9.35
2023-05-06T12:17:42.254Z,10.48
2023-05-06T12:22:43.845Z,10.45
2023-05-06T12:27:45.582Z,11.95
2023-05-06T12:32:58.117Z,13.52
2023-05-06T12:38:09.493Z,11.73
2023-05-06T12:43:12.394Z,13.60
2023-05-06T12:48:16.999Z,14.10
2023-05-06T12:53:32.942Z,13.35
2023-05-06T12:58:37.564Z,12.10
2023-05-06T13:03:41.071Z,12.63
2023-05-06T13:08:43.749Z,10.45
2023-05-06T13:13:45.342Z,11.93
2023-05-06T13:18:46.956Z,11.63
2023-05-06T13:23:48.694Z,11.40
2023-05-06T13:28:50.405Z,10.80
2023-05-06T13:33:52.395Z,10.60
2023-05-06T13:38:54.404Z,11.20
2023-05-06T13:43:56.055Z,12.38
2023-05-06T13:48:57.753Z,14.38
2023-05-06T13:53:59.426Z,14.55
2023-05-06T13:59:01.036Z,15.15
2023-05-06T14:04:02.767Z,16.13
2023-05-06T14:09:04.901Z,18.15
2023-05-06T14:14:06.896Z,17.90
2023-05-06T14:19:09.175Z,18.45
2023-05-06T14:24:12.583Z,20.70
2023-05-06T14:29:14.289Z,19.50
2023-05-06T14:34:15.965Z,20.02
2023-05-06T14:39:17.584Z,19.90
2023-05-06T14:44:19.186Z,19.65
2023-05-06T14:49:21.211Z,20.45
2023-05-06T14:54:22.843Z,18.85
2023-05-06T14:59:24.450Z,41.47
2023-05-06T15:04:27.385Z,19.27
2023-05-06T15:09:29.120Z,19.77
2023-05-06T15:14:30.759Z,19.55
2023-05-06T15:19:33.815Z,27.38
2023-05-06T15:24:35.979Z,22.35
2023-05-06T15:29:39.348Z,23.88
2023-05-06T15:34:41.101Z,22.63
2023-05-06T15:39:42.881Z,40.58
2023-05-06T15:44:44.753Z,19.65
2023-05-06T15:49:54.109Z,72.07
2023-05-06T15:54:59.509Z,18.95
2023-05-06T16:00:02.140Z,18.75
2023-05-06T16:05:07.526Z,19.60
2023-05-06T16:10:09.453Z,20.23
2023-05-06T16:15:11.450Z,19.98
2023-05-06T16:20:13.756Z,19.17
2023-05-06T16:25:16.179Z,19.42
2023-05-06T16:30:17.906Z,19.63
2023-05-06T16:35:19.566Z,20.67
2023-05-06T16:40:21.823Z,18.35
2023-05-06T16:45:23.618Z,20.48
2023-05-06T16:50:25.312Z,20.10
2023-05-06T16:55:27.002Z,22.05
2023-05-06T17:00:29.442Z,20.33
2023-05-06T17:05:31.100Z,19.55
2023-05-06T17:10:32.809Z,18.80
2023-05-06T17:15:34.492Z,19.98
2023-05-06T17:20:51.450Z,20.63
2023-05-06T17:25:57.254Z,20.05
2023-05-06T17:30:58.989Z,22.73
2023-05-06T17:36:00.805Z,22.80
2023-05-06T17:41:02.452Z,21.25
2023-05-06T17:46:04.437Z,18.30
2023-05-06T17:51:06.124Z,19.48
2023-05-06T17:56:07.841Z,20.98
2023-05-06T18:01:09.543Z,19.92
2023-05-06T18:06:12.392Z,18.60
2023-05-06T18:11:14.115Z,19.17
2023-05-06T18:16:15.900Z,21.52
2023-05-06T18:21:17.568Z,20.65
2023-05-06T18:26:35.302Z,21.20
2023-05-06T18:31:40.992Z,19.17
2023-05-06T18:36:42.701Z,17.70
2023-05-06T18:41:44.492Z,17.52
2023-05-06T18:46:46.228Z,16.80
2023-05-06T18:51:48.109Z,16.05
2023-05-06T18:56:51.763Z,14.48
2023-05-06T19:01:53.430Z,15.70
2023-05-06T19:06:55.120Z,14.48
2023-05-06T19:11:56.715Z,13.80
2023-05-06T19:16:58.530Z,14.23
2023-05-06T19:22:01.743Z,14.20
2023-05-06T19:27:03.495Z,13.40
2023-05-06T19:32:05.628Z,14.75
2023-05-06T19:37:07.260Z,15.02
2023-05-06T19:42:08.988Z,15.38
2023-05-06T19:47:12.377Z,15.00
2023-05-06T19:52:27.395Z,14.68
2023-05-06T19:57:33.596Z,14.10
2023-05-06T20:02:37.083Z,13.63
2023-05-06T20:07:38.860Z,12.93
2023-05-06T20:12:41.128Z,10.60
2023-05-06T20:17:42.905Z,11.57
2023-05-06T20:22:44.735Z,11.48
2023-05-06T20:27:46.427Z,11.73
2023-05-06T20:32:49.559Z,11.55
2023-05-06T20:37:54.631Z,11.55
2023-05-06T20:42:56.310Z,12.95
2023-05-06T20:47:58.217Z,11.52
2023-05-06T20:53:00.690Z,12.45
2023-05-06T20:58:02.319Z,15.38
2023-05-06T21:03:04.186Z,11.68
2023-05-06T21:08:05.928Z,10.75
2023-05-06T21:13:08.031Z,9.73
2023-05-06T21:18:10.134Z,9.27
2023-05-06T21:23:11.924Z,9.32
2023-05-06T21:28:14.012Z,8.63
2023-05-06T21:33:15.669Z,10.43
2023-05-06T21:38:17.270Z,8.80
2023-05-06T21:43:19.038Z,10.57
2023-05-06T21:48:20.777Z,10.02
2023-05-06T21:53:22.379Z,9.93
2023-05-06T21:58:23.995Z,9.95
2023-05-06T22:03:27.537Z,9.88
2023-05-06T22:08:29.932Z,11.18
2023-05-06T22:13:31.608Z,11.45
2023-05-06T22:18:33.272Z,10.50
2023-05-06T22:23:35.032Z,11.10
2023-05-06T22:28:36.661Z,11.32
2023-05-06T22:33:38.426Z,11.18
2023-05-06T22:38:40.102Z,11.02
2023-05-06T22:43:41.736Z,11.38
2023-05-06T22:48:46.550Z,11.50
2023-05-06T22:53:48.181Z,12.25
2023-05-06T22:58:49.793Z,14.15
2023-05-06T23:03:51.559Z,13.45
2023-05-06T23:08:53.236Z,15.05
2023-05-06T23:13:54.807Z,15.93
2023-05-06T23:18:56.925Z,17.02
2023-05-06T23:23:58.650Z,17.73
2023-05-06T23:29:00.531Z,18.13
2023-05-06T23:34:02.428Z,20.08
2023-05-06T23:39:04.178Z,21.92
2023-05-06T23:44:06.474Z,21.92
2023-05-06T23:49:08.145Z,26.00
2023-05-06T23:54:09.896Z,23.05
2023-05-06T23:59:11.578Z,23.63
